sensor_id;sensor_type;location;lat;lon;timestamp;pressure;altitude;pressure_sealevel;temperature;humidity
6038;BME280;3047;42.600;23.470;2023-02-18T00:02:07;93765.72;;;5.00;76.29
6038;BME280;3047;42.600;23.470;2023-02-18T00:04:33;93755.69;;;4.95;76.96
6038;BME280;3047;42.600;23.470;2023-02-18T00:07:00;93741.41;;;4.72;76.92
6038;BME280;3047;42.600;23.470;2023-02-18T00:09:27;93758.94;;;4.77;78.13
6038;BME280;3047;42.600;23.470;2023-02-18T00:11:55;93752.31;;;4.85;77.71
6038;BME280;3047;42.600;23.470;2023-02-18T00:14:22;93754.03;;;4.95;76.63
6038;BME280;3047;42.600;23.470;2023-02-18T00:16:49;93748.13;;;4.80;77.09
6038;BME280;3047;42.600;23.470;2023-02-18T00:19:18;93741.44;;;4.77;78.65
6038;BME280;3047;42.600;23.470;2023-02-18T00:21:45;93737.31;;;4.82;77.30
6038;BME280;3047;42.600;23.470;2023-02-18T00:24:13;93739.78;;;4.79;77.47
6038;BME280;3047;42.600;23.470;2023-02-18T00:26:41;93733.97;;;4.83;76.74
6038;BME280;3047;42.600;23.470;2023-02-18T00:29:10;93679.63;;;4.52;76.08
6038;BME280;3047;42.600;23.470;2023-02-18T00:31:38;93718.88;;;4.69;77.12
6038;BME280;3047;42.600;23.470;2023-02-18T00:34:05;93708.91;;;4.76;76.43
6038;BME280;3047;42.600;23.470;2023-02-18T00:36:32;93708.09;;;4.80;77.15
6038;BME280;3047;42.600;23.470;2023-02-18T00:39:01;93706.38;;;4.71;77.39
6038;BME280;3047;42.600;23.470;2023-02-18T00:41:29;93654.56;;;4.45;78.34
6038;BME280;3047;42.600;23.470;2023-02-18T00:43:56;93695.53;;;4.72;78.85
6038;BME280;3047;42.600;23.470;2023-02-18T00:46:24;93699.75;;;4.79;77.84
6038;BME280;3047;42.600;23.470;2023-02-18T00:48:52;93648.72;;;4.39;77.87
6038;BME280;3047;42.600;23.470;2023-02-18T00:51:19;93699.72;;;4.73;78.72
6038;BME280;3047;42.600;23.470;2023-02-18T00:53:45;93680.50;;;4.60;78.50
6038;BME280;3047;42.600;23.470;2023-02-18T00:56:12;93708.09;;;4.84;77.78
6038;BME280;3047;42.600;23.470;2023-02-18T00:58:39;93708.06;;;4.72;78.39
6038;BME280;3047;42.600;23.470;2023-02-18T01:01:08;93668.75;;;4.50;77.50
6038;BME280;3047;42.600;23.470;2023-02-18T01:03:37;93708.91;;;4.76;77.50
6038;BME280;3047;42.600;23.470;2023-02-18T01:06:05;93687.09;;;4.42;78.35
6038;BME280;3047;42.600;23.470;2023-02-18T01:08:32;93714.75;;;4.70;77.13
6038;BME280;3047;42.600;23.470;2023-02-18T01:10:59;93713.88;;;4.68;76.58
6038;BME280;3047;42.600;23.470;2023-02-18T01:13:27;93711.41;;;4.76;76.95
6038;BME280;3047;42.600;23.470;2023-02-18T01:15:54;93687.13;;;4.50;78.16
6038;BME280;3047;42.600;23.470;2023-02-18T01:18:21;93708.88;;;4.62;78.38
6038;BME280;3047;42.600;23.470;2023-02-18T01:20:50;93696.38;;;4.66;77.27
6038;BME280;3047;42.600;23.470;2023-02-18T01:23:17;93703.88;;;4.62;77.29
6038;BME280;3047;42.600;23.470;2023-02-18T01:25:44;93712.16;;;4.52;77.56
6038;BME280;3047;42.600;23.470;2023-02-18T01:28:12;93701.34;;;4.59;77.57
6038;BME280;3047;42.600;23.470;2023-02-18T01:30:40;93702.16;;;4.55;77.50
6038;BME280;3047;42.600;23.470;2023-02-18T01:33:07;93701.31;;;4.53;77.25
6038;BME280;3047;42.600;23.470;2023-02-18T01:35:36;93698.78;;;4.50;77.93
6038;BME280;3047;42.600;23.470;2023-02-18T01:38:05;93700.44;;;4.49;79.01
6038;BME280;3047;42.600;23.470;2023-02-18T01:40:31;93680.38;;;4.32;79.05
6038;BME280;3047;42.600;23.470;2023-02-18T01:42:58;93672.88;;;4.37;77.66
6038;BME280;3047;42.600;23.470;2023-02-18T01:45:50;93698.81;;;4.53;77.55
6038;BME280;3047;42.600;23.470;2023-02-18T01:48:19;93708.72;;;4.36;78.29
6038;BME280;3047;42.600;23.470;2023-02-18T01:50:49;93702.09;;;4.42;78.75
6038;BME280;3047;42.600;23.470;2023-02-18T01:53:22;93718.75;;;4.40;79.02
6038;BME280;3047;42.600;23.470;2023-02-18T01:55:51;93716.22;;;4.37;79.51
6038;BME280;3047;42.600;23.470;2023-02-18T01:58:18;93712.97;;;4.46;77.28
6038;BME280;3047;42.600;23.470;2023-02-18T02:00:45;93723.78;;;4.42;78.50
6038;BME280;3047;42.600;23.470;2023-02-18T02:03:12;93720.44;;;4.43;78.75
6038;BME280;3047;42.600;23.470;2023-02-18T02:05:39;93717.91;;;4.34;78.55
6038;BME280;3047;42.600;23.470;2023-02-18T02:08:08;93728.63;;;4.16;80.51
6038;BME280;3047;42.600;23.470;2023-02-18T02:10:53;93685.16;;;3.89;80.42
6038;BME280;3047;42.600;23.470;2023-02-18T02:13:31;93724.47;;;4.19;79.26
6038;BME280;3047;42.600;23.470;2023-02-18T02:16:05;93687.78;;;4.09;78.97
6038;BME280;3047;42.600;23.470;2023-02-18T02:18:47;93671.88;;;4.04;78.49
6038;BME280;3047;42.600;23.470;2023-02-18T02:21:58;93701.28;;;4.42;76.19
6038;BME280;3047;42.600;23.470;2023-02-18T02:25:00;93662.00;;;4.22;77.44
6038;BME280;3047;42.600;23.470;2023-02-18T02:28:00;93700.41;;;4.40;78.27
6038;BME280;3047;42.600;23.470;2023-02-18T02:37:01;93717.78;;;4.14;81.31
6038;BME280;3047;42.600;23.470;2023-02-18T02:39:39;93657.59;;;3.77;81.92
6038;BME280;3047;42.600;23.470;2023-02-18T02:42:12;93698.53;;;3.97;81.59
6038;BME280;3047;42.600;23.470;2023-02-18T02:44:48;93702.78;;;4.17;79.50
6038;BME280;3047;42.600;23.470;2023-02-18T02:47:26;93640.16;;;3.89;78.51
6038;BME280;3047;42.600;23.470;2023-02-18T02:49:59;93687.81;;;4.20;78.61
6038;BME280;3047;42.600;23.470;2023-02-18T02:52:30;93697.84;;;4.29;78.28
6038;BME280;3047;42.600;23.470;2023-02-18T02:54:58;93682.03;;;4.33;77.94
6038;BME280;3047;42.600;23.470;2023-02-18T02:57:46;93677.84;;;4.28;78.85
6038;BME280;3047;42.600;23.470;2023-02-18T03:00:16;93657.78;;;4.14;79.39
6038;BME280;3047;42.600;23.470;2023-02-18T03:02:55;93681.22;;;4.34;78.77
6038;BME280;3047;42.600;23.470;2023-02-18T03:05:35;93686.19;;;4.28;79.33
6038;BME280;3047;42.600;23.470;2023-02-18T03:08:24;93691.16;;;4.24;79.62
6038;BME280;3047;42.600;23.470;2023-02-18T03:11:01;93697.78;;;4.15;81.07
6038;BME280;3047;42.600;23.470;2023-02-18T03:13:44;93706.16;;;4.22;79.71
6038;BME280;3047;42.600;23.470;2023-02-18T03:16:22;93712.03;;;4.27;80.04
6038;BME280;3047;42.600;23.470;2023-02-18T03:18:55;93709.53;;;4.26;80.89
6038;BME280;3047;42.600;23.470;2023-02-18T03:21:25;93716.19;;;4.27;81.16
6038;BME280;3047;42.600;23.470;2023-02-18T03:23:57;93716.16;;;4.20;79.56
6038;BME280;3047;42.600;23.470;2023-02-18T03:26:27;93711.16;;;4.19;79.36
6038;BME280;3047;42.600;23.470;2023-02-18T03:28:59;93710.31;;;4.20;79.81
6038;BME280;3047;42.600;23.470;2023-02-18T03:31:29;93715.25;;;4.12;81.17
6038;BME280;3047;42.600;23.470;2023-02-18T03:34:01;93721.16;;;4.25;81.15
6038;BME280;3047;42.600;23.470;2023-02-18T03:36:31;93739.56;;;4.32;79.90
6038;BME280;3047;42.600;23.470;2023-02-18T03:39:03;93706.00;;;3.94;80.50
6038;BME280;3047;42.600;23.470;2023-02-18T03:41:31;93692.53;;;3.74;80.54
6038;BME280;3047;42.600;23.470;2023-02-18T03:44:00;93750.22;;;4.08;80.67
6038;BME280;3047;42.600;23.470;2023-02-18T03:46:28;93741.06;;;4.07;81.23
6038;BME280;3047;42.600;23.470;2023-02-18T03:48:55;93740.19;;;4.00;80.57
6038;BME280;3047;42.600;23.470;2023-02-18T03:51:22;93745.13;;;3.92;81.20
6038;BME280;3047;42.600;23.470;2023-02-18T03:53:49;93746.75;;;3.86;81.33
6038;BME280;3047;42.600;23.470;2023-02-18T03:56:17;93754.34;;;3.98;80.98
6038;BME280;3047;42.600;23.470;2023-02-18T03:58:44;93755.88;;;3.79;81.67
6038;BME280;3047;42.600;23.470;2023-02-18T04:01:11;93754.25;;;3.87;81.32
6038;BME280;3047;42.600;23.470;2023-02-18T04:03:38;93744.25;;;3.87;82.06
6038;BME280;3047;42.600;23.470;2023-02-18T04:06:05;93751.72;;;3.81;82.21
6038;BME280;3047;42.600;23.470;2023-02-18T04:08:32;93743.38;;;3.78;83.49
6038;BME280;3047;42.600;23.470;2023-02-18T04:10:59;93737.53;;;3.77;83.36
6038;BME280;3047;42.600;23.470;2023-02-18T04:13:28;93721.72;;;3.80;82.63
6038;BME280;3047;42.600;23.470;2023-02-18T04:15:55;93721.00;;;3.94;80.13
6038;BME280;3047;42.600;23.470;2023-02-18T04:18:22;93721.91;;;4.07;80.76
6038;BME280;3047;42.600;23.470;2023-02-18T04:20:49;93711.97;;;4.19;80.82
6038;BME280;3047;42.600;23.470;2023-02-18T04:23:16;93711.16;;;4.20;81.54
6038;BME280;3047;42.600;23.470;2023-02-18T04:25:42;93710.31;;;4.20;81.77
6038;BME280;3047;42.600;23.470;2023-02-18T04:28:09;93676.91;;;4.06;81.83
6038;BME280;3047;42.600;23.470;2023-02-18T04:30:39;93640.13;;;3.85;81.86
6038;BME280;3047;42.600;23.470;2023-02-18T04:33:06;93685.19;;;4.00;83.19
6038;BME280;3047;42.600;23.470;2023-02-18T04:35:33;93726.16;;;4.24;82.39
6038;BME280;3047;42.600;23.470;2023-02-18T04:38:01;93725.34;;;4.21;80.08
6038;BME280;3047;42.600;23.470;2023-02-18T04:40:28;93718.53;;;3.97;81.74
6038;BME280;3047;42.600;23.470;2023-02-18T04:42:55;93720.88;;;3.79;81.68
6038;BME280;3047;42.600;23.470;2023-02-18T04:45:22;93716.88;;;4.03;79.44
6038;BME280;3047;42.600;23.470;2023-02-18T04:47:50;93716.97;;;4.15;79.08
6038;BME280;3047;42.600;23.470;2023-02-18T04:50:17;93725.34;;;4.21;79.53
6038;BME280;3047;42.600;23.470;2023-02-18T04:52:44;93723.56;;;4.05;81.42
6038;BME280;3047;42.600;23.470;2023-02-18T04:55:10;93718.50;;;3.94;81.16
6038;BME280;3047;42.600;23.470;2023-02-18T04:57:37;93690.16;;;3.89;81.76
6038;BME280;3047;42.600;23.470;2023-02-18T05:00:05;93716.00;;;3.96;81.38
6038;BME280;3047;42.600;23.470;2023-02-18T05:02:33;93720.97;;;3.91;81.73
6038;BME280;3047;42.600;23.470;2023-02-18T05:05:01;93720.03;;;3.74;81.68
6038;BME280;3047;42.600;23.470;2023-02-18T05:07:28;93711.78;;;3.87;82.24
6038;BME280;3047;42.600;23.470;2023-02-18T05:09:55;93721.03;;;3.97;85.29
6038;BME280;3047;42.600;23.470;2023-02-18T05:12:21;93726.72;;;3.80;85.34
6038;BME280;3047;42.600;23.470;2023-02-18T05:14:48;93738.34;;;3.76;84.80
6038;BME280;3047;42.600;23.470;2023-02-18T05:17:15;93726.75;;;3.81;83.60
6038;BME280;3047;42.600;23.470;2023-02-18T05:19:42;93704.13;;;3.67;83.31
6038;BME280;3047;42.600;23.470;2023-02-18T05:22:10;93716.66;;;3.69;83.42
6038;BME280;3047;42.600;23.470;2023-02-18T05:24:37;93712.56;;;3.79;84.34
6038;BME280;3047;42.600;23.470;2023-02-18T05:27:03;93690.94;;;3.85;83.43
6038;BME280;3047;42.600;23.470;2023-02-18T05:29:30;93707.72;;;4.05;83.36
6038;BME280;3047;42.600;23.470;2023-02-18T05:31:57;93713.53;;;4.04;83.28
6038;BME280;3047;42.600;23.470;2023-02-18T05:34:23;93713.59;;;4.11;83.22
6038;BME280;3047;42.600;23.470;2023-02-18T05:36:50;93700.25;;;4.12;84.16
6038;BME280;3047;42.600;23.470;2023-02-18T05:39:18;93706.13;;;4.20;81.98
6038;BME280;3047;42.600;23.470;2023-02-18T05:41:45;93691.19;;;4.28;77.08
6038;BME280;3047;42.600;23.470;2023-02-18T05:44:12;93712.97;;;4.54;81.54
6038;BME280;3047;42.600;23.470;2023-02-18T05:46:58;93662.88;;;4.31;77.26
6038;BME280;3047;42.600;23.470;2023-02-18T05:49:26;93715.56;;;4.66;79.63
6038;BME280;3047;42.600;23.470;2023-02-18T05:51:53;93721.31;;;4.46;81.01
6038;BME280;3047;42.600;23.470;2023-02-18T05:54:22;93725.44;;;4.38;81.14
6038;BME280;3047;42.600;23.470;2023-02-18T05:56:49;93727.13;;;4.47;80.42
6038;BME280;3047;42.600;23.470;2023-02-18T05:59:16;93712.16;;;4.52;79.90
6038;BME280;3047;42.600;23.470;2023-02-18T06:01:43;93725.56;;;4.69;81.39
6038;BME280;3047;42.600;23.470;2023-02-18T06:04:10;93726.41;;;4.77;80.99
6038;BME280;3047;42.600;23.470;2023-02-18T06:06:37;93672.13;;;4.56;83.51
6038;BME280;3047;42.600;23.470;2023-02-18T06:09:05;93739.00;;;4.97;79.41
6038;BME280;3047;42.600;23.470;2023-02-18T06:11:34;93707.22;;;4.70;78.07
6038;BME280;3047;42.600;23.470;2023-02-18T06:14:01;93745.66;;;4.92;79.21
6038;BME280;3047;42.600;23.470;2023-02-18T06:16:28;93752.38;;;4.94;79.08
6038;BME280;3047;42.600;23.470;2023-02-18T06:18:55;93754.03;;;4.99;77.71
6038;BME280;3047;42.600;23.470;2023-02-18T06:21:22;93747.41;;;5.13;74.00
6038;BME280;3047;42.600;23.470;2023-02-18T06:23:50;93724.00;;;4.95;75.42
6038;BME280;3047;42.600;23.470;2023-02-18T06:26:16;93736.56;;;5.25;73.35
6038;BME280;3047;42.600;23.470;2023-02-18T06:28:44;93733.25;;;5.32;73.59
6038;BME280;3047;42.600;23.470;2023-02-18T06:31:11;93722.41;;;5.33;75.13
6038;BME280;3047;42.600;23.470;2023-02-18T06:33:38;93720.75;;;5.39;75.06
6038;BME280;3047;42.600;23.470;2023-02-18T06:36:07;93719.06;;;5.51;76.34
6038;BME280;3047;42.600;23.470;2023-02-18T06:38:36;93720.75;;;5.68;74.44
6038;BME280;3047;42.600;23.470;2023-02-18T06:41:03;93717.41;;;5.73;74.67
6038;BME280;3047;42.600;23.470;2023-02-18T06:43:30;93717.41;;;5.91;75.29
6038;BME280;3047;42.600;23.470;2023-02-18T06:45:59;93708.22;;;6.02;76.12
6038;BME280;3047;42.600;23.470;2023-02-18T06:48:25;93708.22;;;6.13;76.15
6038;BME280;3047;42.600;23.470;2023-02-18T06:50:52;93715.72;;;6.24;76.64
6038;BME280;3047;42.600;23.470;2023-02-18T06:53:19;93714.88;;;6.32;78.38
6038;BME280;3047;42.600;23.470;2023-02-18T06:55:46;93703.19;;;6.33;79.62
6038;BME280;3047;42.600;23.470;2023-02-18T06:58:13;93714.03;;;6.36;78.34
6038;BME280;3047;42.600;23.470;2023-02-18T07:00:40;93723.19;;;6.51;79.12
6038;BME280;3047;42.600;23.470;2023-02-18T07:03:10;93693.97;;;6.36;79.43
6038;BME280;3047;42.600;23.470;2023-02-18T07:05:37;93702.25;;;6.61;79.33
6038;BME280;3047;42.600;23.470;2023-02-18T07:08:04;93713.91;;;6.78;75.40
6038;BME280;3047;42.600;23.470;2023-02-18T07:10:31;93710.50;;;6.88;74.97
6038;BME280;3047;42.600;23.470;2023-02-18T07:12:58;93727.22;;;6.92;75.70
6038;BME280;3047;42.600;23.470;2023-02-18T07:15:24;93728.91;;;6.91;74.01
6038;BME280;3047;42.600;23.470;2023-02-18T07:17:52;93684.59;;;6.78;70.14
6038;BME280;3047;42.600;23.470;2023-02-18T07:20:23;93715.34;;;7.20;68.75
6038;BME280;3047;42.600;23.470;2023-02-18T07:22:50;93727.81;;;7.37;65.29
6038;BME280;3047;42.600;23.470;2023-02-18T07:25:17;93734.44;;;7.55;65.98
6038;BME280;3047;42.600;23.470;2023-02-18T07:27:44;93723.56;;;7.48;65.71
6038;BME280;3047;42.600;23.470;2023-02-18T07:30:12;93722.72;;;7.51;64.10
6038;BME280;3047;42.600;23.470;2023-02-18T07:32:39;93715.09;;;7.63;64.26
6038;BME280;3047;42.600;23.470;2023-02-18T07:35:06;93709.94;;;7.77;62.83
6038;BME280;3047;42.600;23.470;2023-02-18T07:37:34;93660.69;;;7.54;61.60
6038;BME280;3047;42.600;23.470;2023-02-18T07:40:01;93722.38;;;7.93;62.57
6038;BME280;3047;42.600;23.470;2023-02-18T07:42:27;93713.94;;;8.02;62.22
6038;BME280;3047;42.600;23.470;2023-02-18T07:44:54;93728.19;;;8.06;61.01
6038;BME280;3047;42.600;23.470;2023-02-18T07:47:21;93736.59;;;8.01;60.89
6038;BME280;3047;42.600;23.470;2023-02-18T07:49:48;93740.88;;;7.91;61.61
6038;BME280;3047;42.600;23.470;2023-02-18T07:52:15;93744.28;;;7.81;60.45
6038;BME280;3047;42.600;23.470;2023-02-18T07:54:43;93740.94;;;7.83;61.49
6038;BME280;3047;42.600;23.470;2023-02-18T07:57:09;93697.53;;;7.58;61.08
6038;BME280;3047;42.600;23.470;2023-02-18T07:59:36;93741.75;;;7.87;62.27
6038;BME280;3047;42.600;23.470;2023-02-18T08:02:03;93741.72;;;7.90;61.41
6038;BME280;3047;42.600;23.470;2023-02-18T08:04:32;93745.09;;;7.84;61.26
6038;BME280;3047;42.600;23.470;2023-02-18T08:06:58;93743.44;;;7.83;61.24
6038;BME280;3047;42.600;23.470;2023-02-18T08:09:25;93738.50;;;7.71;60.66
6038;BME280;3047;42.600;23.470;2023-02-18T08:11:53;93741.78;;;7.82;60.40
6038;BME280;3047;42.600;23.470;2023-02-18T08:14:20;93739.06;;;8.07;60.55
6038;BME280;3047;42.600;23.470;2023-02-18T08:16:47;93743.91;;;8.28;60.36
6038;BME280;3047;42.600;23.470;2023-02-18T08:19:13;93734.63;;;8.35;59.22
6038;BME280;3047;42.600;23.470;2023-02-18T08:21:40;93740.50;;;8.32;61.09
6038;BME280;3047;42.600;23.470;2023-02-18T08:24:07;93708.72;;;8.24;60.26
6038;BME280;3047;42.600;23.470;2023-02-18T08:26:34;93725.28;;;8.46;60.43
6038;BME280;3047;42.600;23.470;2023-02-18T08:29:02;93696.88;;;8.35;60.47
6038;BME280;3047;42.600;23.470;2023-02-18T08:31:29;93711.75;;;8.58;59.26
6038;BME280;3047;42.600;23.470;2023-02-18T08:33:58;93712.41;;;8.74;60.79
6038;BME280;3047;42.600;23.470;2023-02-18T08:36:25;93690.69;;;8.65;60.40
6038;BME280;3047;42.600;23.470;2023-02-18T08:38:52;93715.53;;;8.94;56.39
6038;BME280;3047;42.600;23.470;2023-02-18T08:41:19;93727.38;;;8.86;58.61
6038;BME280;3047;42.600;23.470;2023-02-18T08:43:46;93685.66;;;8.65;57.90
6038;BME280;3047;42.600;23.470;2023-02-18T08:46:15;93715.47;;;8.99;54.68
6038;BME280;3047;42.600;23.470;2023-02-18T08:48:43;93708.66;;;9.05;54.13
6038;BME280;3047;42.600;23.470;2023-02-18T08:51:12;93703.53;;;9.13;54.88
6038;BME280;3047;42.600;23.470;2023-02-18T08:53:39;93701.78;;;9.18;55.78
6038;BME280;3047;42.600;23.470;2023-02-18T08:56:07;93707.59;;;9.25;55.42
6038;BME280;3047;42.600;23.470;2023-02-18T08:58:34;93704.94;;;9.34;56.49
6038;BME280;3047;42.600;23.470;2023-02-18T09:01:03;93683.47;;;9.05;55.51
6038;BME280;3047;42.600;23.470;2023-02-18T09:03:32;93719.16;;;9.38;55.03
6038;BME280;3047;42.600;23.470;2023-02-18T09:05:59;93717.66;;;9.23;55.57
6038;BME280;3047;42.600;23.470;2023-02-18T09:08:26;93723.44;;;9.31;55.42
6038;BME280;3047;42.600;23.470;2023-02-18T09:10:56;93712.63;;;9.23;55.73
6038;BME280;3047;42.600;23.470;2023-02-18T09:13:23;93736.88;;;9.33;56.69
6038;BME280;3047;42.600;23.470;2023-02-18T09:15:57;93701.06;;;9.10;55.67
6038;BME280;3047;42.600;23.470;2023-02-18T09:18:24;93716.06;;;9.18;56.32
6038;BME280;3047;42.600;23.470;2023-02-18T09:20:55;93725.19;;;9.28;56.46
6038;BME280;3047;42.600;23.470;2023-02-18T09:23:23;93702.59;;;9.19;56.44
6038;BME280;3047;42.600;23.470;2023-02-18T09:25:49;93717.56;;;9.32;56.72
6038;BME280;3047;42.600;23.470;2023-02-18T09:28:16;93726.84;;;9.27;58.94
6038;BME280;3047;42.600;23.470;2023-02-18T09:30:43;93724.19;;;9.38;57.25
6038;BME280;3047;42.600;23.470;2023-02-18T09:33:10;93705.84;;;9.28;58.20
6038;BME280;3047;42.600;23.470;2023-02-18T09:35:40;93697.47;;;9.28;56.83
6038;BME280;3047;42.600;23.470;2023-02-18T09:38:10;93568.28;;;8.55;56.76
6038;BME280;3047;42.600;23.470;2023-02-18T09:40:38;93703.88;;;9.49;55.80
6038;BME280;3047;42.600;23.470;2023-02-18T09:43:15;93696.19;;;9.58;56.48
6038;BME280;3047;42.600;23.470;2023-02-18T09:45:44;93701.06;;;9.67;58.34
6038;BME280;3047;42.600;23.470;2023-02-18T09:48:11;93694.59;;;9.52;58.81
6038;BME280;3047;42.600;23.470;2023-02-18T09:50:38;93651.00;;;9.44;55.47
6038;BME280;3047;42.600;23.470;2023-02-18T09:53:05;93690.38;;;9.53;56.08
6038;BME280;3047;42.600;23.470;2023-02-18T09:55:36;93706.19;;;9.62;56.34
6038;BME280;3047;42.600;23.470;2023-02-18T09:58:06;93679.28;;;9.63;55.21
6038;BME280;3047;42.600;23.470;2023-02-18T10:00:39;93699.16;;;9.83;54.76
6038;BME280;3047;42.600;23.470;2023-02-18T10:03:11;93707.59;;;9.82;55.45
6038;BME280;3047;42.600;23.470;2023-02-18T10:05:41;93606.91;;;9.15;57.35
6038;BME280;3047;42.600;23.470;2023-02-18T10:08:18;93680.00;;;9.73;54.94
6038;BME280;3047;42.600;23.470;2023-02-18T10:10:48;93712.31;;;10.02;53.96
6038;BME280;3047;42.600;23.470;2023-02-18T10:13:17;93653.88;;;9.75;53.73
6038;BME280;3047;42.600;23.470;2023-02-18T10:15:44;93711.22;;;10.16;54.35
6038;BME280;3047;42.600;23.470;2023-02-18T10:18:25;93691.97;;;10.11;54.08
6038;BME280;3047;42.600;23.470;2023-02-18T10:20:57;93649.19;;;10.03;51.94
6038;BME280;3047;42.600;23.470;2023-02-18T10:23:28;93683.94;;;10.37;52.47
6038;BME280;3047;42.600;23.470;2023-02-18T10:25:58;93682.34;;;10.33;52.57
6038;BME280;3047;42.600;23.470;2023-02-18T10:28:27;93691.34;;;10.48;54.04
6038;BME280;3047;42.600;23.470;2023-02-18T10:30:57;93671.13;;;10.48;52.56
6038;BME280;3047;42.600;23.470;2023-02-18T10:33:33;93685.28;;;10.56;52.27
6038;BME280;3047;42.600;23.470;2023-02-18T10:36:10;93650.22;;;10.41;52.32
6038;BME280;3047;42.600;23.470;2023-02-18T10:38:49;93687.63;;;10.67;53.87
6038;BME280;3047;42.600;23.470;2023-02-18T10:41:27;93689.97;;;10.76;53.10
6038;BME280;3047;42.600;23.470;2023-02-18T10:44:03;93647.78;;;10.80;51.12
6038;BME280;3047;42.600;23.470;2023-02-18T10:46:41;93664.97;;;11.04;50.17
6038;BME280;3047;42.600;23.470;2023-02-18T10:49:25;93664.84;;;11.10;50.38
6038;BME280;3047;42.600;23.470;2023-02-18T10:51:58;93653.81;;;11.13;49.77
6038;BME280;3047;42.600;23.470;2023-02-18T10:54:47;93632.75;;;11.14;49.65
6038;BME280;3047;42.600;23.470;2023-02-18T10:57:17;93608.84;;;11.27;48.70
6038;BME280;3047;42.600;23.470;2023-02-18T10:59:54;93626.94;;;11.48;51.51
6038;BME280;3047;42.600;23.470;2023-02-18T11:02:25;93598.28;;;11.46;50.72
6038;BME280;3047;42.600;23.470;2023-02-18T11:04:54;93633.31;;;11.98;47.37
6038;BME280;3047;42.600;23.470;2023-02-18T11:07:25;93642.22;;;12.13;47.32
6038;BME280;3047;42.600;23.470;2023-02-18T11:09:53;93616.72;;;12.19;46.87
6038;BME280;3047;42.600;23.470;2023-02-18T11:12:24;93635.63;;;12.40;46.28
6038;BME280;3047;42.600;23.470;2023-02-18T11:15:05;93640.59;;;12.43;47.55
6038;BME280;3047;42.600;23.470;2023-02-18T11:17:33;93610.81;;;12.51;45.31
6038;BME280;3047;42.600;23.470;2023-02-18T11:20:27;93622.63;;;12.82;47.40
6038;BME280;3047;42.600;23.470;2023-02-18T11:23:17;93609.09;;;13.11;49.10
6038;BME280;3047;42.600;23.470;2023-02-18T11:25:56;93606.44;;;13.45;47.98
6038;BME280;3047;42.600;23.470;2023-02-18T11:28:40;93587.56;;;13.52;46.36
6038;BME280;3047;42.600;23.470;2023-02-18T11:31:08;93599.38;;;13.80;47.43
6038;BME280;3047;42.600;23.470;2023-02-18T11:33:39;93574.00;;;13.80;45.93
6038;BME280;3047;42.600;23.470;2023-02-18T11:36:16;93581.88;;;13.97;45.62
6038;BME280;3047;42.600;23.470;2023-02-18T11:38:45;93569.75;;;14.05;47.10
6038;BME280;3047;42.600;23.470;2023-02-18T11:41:16;93557.59;;;14.14;44.89
6038;BME280;3047;42.600;23.470;2023-02-18T11:43:48;93562.25;;;14.26;42.09
6038;BME280;3047;42.600;23.470;2023-02-18T11:46:17;93559.44;;;14.33;43.93
6038;BME280;3047;42.600;23.470;2023-02-18T11:48:44;93529.94;;;14.29;44.04
6038;BME280;3047;42.600;23.470;2023-02-18T11:51:17;93551.03;;;14.56;41.86
6038;BME280;3047;42.600;23.470;2023-02-18T11:53:56;93543.66;;;14.50;42.32
6038;BME280;3047;42.600;23.470;2023-02-18T11:56:24;93536.72;;;14.54;41.50
6038;BME280;3047;42.600;23.470;2023-02-18T11:58:53;93540.50;;;14.67;42.65
6038;BME280;3047;42.600;23.470;2023-02-18T12:01:27;93537.25;;;14.62;41.60
6038;BME280;3047;42.600;23.470;2023-02-18T12:03:59;93531.25;;;14.65;42.76
6038;BME280;3047;42.600;23.470;2023-02-18T12:06:33;93506.41;;;14.48;43.11
6038;BME280;3047;42.600;23.470;2023-02-18T12:09:04;93530.19;;;14.70;41.45
6038;BME280;3047;42.600;23.470;2023-02-18T12:11:34;93521.00;;;14.66;43.20
6038;BME280;3047;42.600;23.470;2023-02-18T12:14:08;93459.25;;;14.41;41.76
6038;BME280;3047;42.600;23.470;2023-02-18T12:16:49;93516.97;;;14.84;43.29
6038;BME280;3047;42.600;23.470;2023-02-18T12:19:37;93516.78;;;14.89;42.45
6038;BME280;3047;42.600;23.470;2023-02-18T12:22:11;93519.09;;;14.95;41.62
6038;BME280;3047;42.600;23.470;2023-02-18T12:24:51;93477.66;;;14.71;41.99
6038;BME280;3047;42.600;23.470;2023-02-18T12:27:28;93514.84;;;14.95;42.81
6038;BME280;3047;42.600;23.470;2023-02-18T12:30:14;93521.47;;;14.99;42.15
6038;BME280;3047;42.600;23.470;2023-02-18T12:32:50;93512.34;;;14.94;44.00
6038;BME280;3047;42.600;23.470;2023-02-18T12:35:35;93509.91;;;14.91;42.38
6038;BME280;3047;42.600;23.470;2023-02-18T12:38:20;93504.44;;;14.79;41.22
6038;BME280;3047;42.600;23.470;2023-02-18T12:41:01;93493.19;;;14.63;45.68
6038;BME280;3047;42.600;23.470;2023-02-18T12:43:41;93464.53;;;14.58;42.70
6038;BME280;3047;42.600;23.470;2023-02-18T12:46:29;93497.34;;;14.88;41.11
6038;BME280;3047;42.600;23.470;2023-02-18T12:49:26;93482.00;;;14.67;45.13
6038;BME280;3047;42.600;23.470;2023-02-18T12:52:13;93460.59;;;14.51;45.31
6038;BME280;3047;42.600;23.470;2023-02-18T12:55:02;93429.31;;;14.49;46.39
6038;BME280;3047;42.600;23.470;2023-02-18T12:57:41;93474.66;;;14.81;43.86
6038;BME280;3047;42.600;23.470;2023-02-18T13:00:29;93473.66;;;14.86;45.16
6038;BME280;3047;42.600;23.470;2023-02-18T13:06:08;93464.47;;;14.83;46.55
6038;BME280;3047;42.600;23.470;2023-02-18T13:08:45;93481.38;;;14.84;45.86
6038;BME280;3047;42.600;23.470;2023-02-18T13:11:23;93476.22;;;14.86;46.26
6038;BME280;3047;42.600;23.470;2023-02-18T13:13:59;93440.72;;;14.61;45.23
6038;BME280;3047;42.600;23.470;2023-02-18T13:16:30;93451.25;;;14.73;45.99
6038;BME280;3047;42.600;23.470;2023-02-18T13:19:02;93475.31;;;14.87;46.91
6038;BME280;3047;42.600;23.470;2023-02-18T13:21:35;93477.16;;;14.83;46.97
6038;BME280;3047;42.600;23.470;2023-02-18T13:24:06;93455.28;;;14.79;46.50
6038;BME280;3047;42.600;23.470;2023-02-18T13:26:35;93470.59;;;14.77;49.60
6038;BME280;3047;42.600;23.470;2023-02-18T13:29:15;93456.41;;;14.72;49.08
6038;BME280;3047;42.600;23.470;2023-02-18T13:31:53;93466.63;;;14.70;48.66
6038;BME280;3047;42.600;23.470;2023-02-18T13:34:30;93464.22;;;14.67;46.66
6038;BME280;3047;42.600;23.470;2023-02-18T13:37:04;93466.59;;;14.48;48.91
6038;BME280;3047;42.600;23.470;2023-02-18T13:39:33;93456.25;;;14.29;51.13
6038;BME280;3047;42.600;23.470;2023-02-18T13:42:25;93466.41;;;14.29;51.76
6038;BME280;3047;42.600;23.470;2023-02-18T13:45:21;93456.78;;;14.16;50.63
6038;BME280;3047;42.600;23.470;2023-02-18T13:47:50;93465.38;;;14.12;50.68
6038;BME280;3047;42.600;23.470;2023-02-18T13:50:42;93419.16;;;13.78;52.69